Time;durP1;ratioP1;P1;durP2;ratioP2;P2;SDS_P1;SDS_P2;PMS_P1;PMS_P2;Temp;Humidity;BMP_temperature;BMP_pressure;BME280_temperature;BME280_humidity;BME280_pressure;Samples;Min_cycle;Max_cycle;Signal;HPM_P1;HPM_P2
2024/03/08 00:00:33;;;;;;;9.80;5.63;;;;;;;;;;5060923;28;20052;-61
2024/03/08 00:03:02;;;;;;;12.00;6.43;;;;;;;;;;5056315;28;20145;-60
2024/03/08 00:05:32;;;;;;;9.50;5.30;;;;;;;;;;5078713;28;20048;-60
2024/03/08 00:08:01;;;;;;;10.27;5.57;;;;;;;;;;5069484;28;20460;-60
2024/03/08 00:10:29;;;;;;;13.50;5.63;;;;;;;;;;5056526;28;20452;-59
2024/03/08 00:12:58;;;;;;;10.52;5.30;;;;;;;;;;5044810;28;20041;-61
2024/03/08 00:15:29;;;;;;;9.88;5.18;;;;;;;;;;5059322;28;20045;-60
2024/03/08 00:17:57;;;;;;;10.10;6.03;;;;;;;;;;5050805;28;20478;-60
2024/03/08 00:20:26;;;;;;;12.05;6.15;;;;;;;;;;5075519;28;20444;-60
2024/03/08 00:22:57;;;;;;;9.63;5.50;;;;;;;;;;5063238;28;20045;-59
2024/03/08 00:25:26;;;;;;;9.57;5.65;;;;;;;;;;5068553;28;20076;-61
2024/03/08 00:27:55;;;;;;;8.82;5.45;;;;;;;;;;5065869;28;20059;-60
2024/03/08 00:30:25;;;;;;;13.70;6.07;;;;;;;;;;5072180;28;20130;-61
2024/03/08 00:32:53;;;;;;;9.55;4.90;;;;;;;;;;5066519;28;20162;-60
2024/03/08 00:35:22;;;;;;;9.85;5.65;;;;;;;;;;5078093;28;20048;-62
2024/03/08 00:37:51;;;;;;;11.77;6.38;;;;;;;;;;5064630;28;20154;-59
2024/03/08 00:40:20;;;;;;;11.93;5.88;;;;;;;;;;5070371;28;20451;-61
2024/03/08 00:42:49;;;;;;;10.68;5.43;;;;;;;;;;5068722;28;20056;-59
2024/03/08 00:45:17;;;;;;;10.93;6.05;;;;;;;;;;5071425;28;20370;-60
2024/03/08 00:47:46;;;;;;;11.40;5.93;;;;;;;;;;5066248;28;20215;-59
2024/03/08 00:50:14;;;;;;;9.43;5.15;;;;;;;;;;5075012;28;20063;-62
2024/03/08 00:52:42;;;;;;;7.22;4.68;;;;;;;;;;5056710;28;20110;-60
2024/03/08 00:55:11;;;;;;;8.57;5.22;;;;;;;;;;5065923;28;20397;-60
2024/03/08 00:57:41;;;;;;;12.35;5.65;;;;;;;;;;5064768;28;20052;-61
2024/03/08 01:00:11;;;;;;;9.27;5.53;;;;;;;;;;5056725;28;20057;-59
2024/03/08 01:02:41;;;;;;;9.68;5.65;;;;;;;;;;5052335;28;20541;-59
2024/03/08 01:05:10;;;;;;;12.10;5.97;;;;;;;;;;5045502;28;20073;-59
2024/03/08 01:07:38;;;;;;;10.32;5.68;;;;;;;;;;5047581;28;20098;-60
2024/03/08 01:10:09;;;;;;;10.63;5.10;;;;;;;;;;5046534;28;20052;-59
2024/03/08 01:12:38;;;;;;;9.73;5.20;;;;;;;;;;5052251;28;20048;-61
2024/03/08 01:15:09;;;;;;;11.77;6.10;;;;;;;;;;5045750;28;20052;-60
2024/03/08 01:17:37;;;;;;;10.57;5.82;;;;;;;;;;5046543;28;20091;-59
2024/03/08 01:20:06;;;;;;;9.88;5.25;;;;;;;;;;5042781;28;20061;-60
2024/03/08 01:22:35;;;;;;;10.73;5.47;;;;;;;;;;5034805;28;20061;-60
2024/03/08 01:25:04;;;;;;;11.02;5.28;;;;;;;;;;5044821;28;20084;-60
2024/03/08 01:27:36;;;;;;;9.88;5.72;;;;;;;;;;5042946;28;20135;-59
2024/03/08 01:30:05;;;;;;;9.40;5.40;;;;;;;;;;5038656;28;20045;-63
2024/03/08 01:32:35;;;;;;;12.50;6.43;;;;;;;;;;5044702;28;20113;-61
2024/03/08 01:35:04;;;;;;;10.90;5.35;;;;;;;;;;5045108;28;20036;-59
2024/03/08 01:37:32;;;;;;;13.75;6.82;;;;;;;;;;5053668;28;20511;-60
2024/03/08 01:40:01;;;;;;;13.20;6.70;;;;;;;;;;5043355;28;20041;-59
2024/03/08 01:42:29;;;;;;;10.57;5.65;;;;;;;;;;5045882;28;20041;-59
2024/03/08 01:44:57;;;;;;;9.32;5.80;;;;;;;;;;5043334;28;20072;-60
2024/03/08 01:47:26;;;;;;;8.90;5.15;;;;;;;;;;5048608;28;20041;-62
2024/03/08 01:49:56;;;;;;;14.02;6.82;;;;;;;;;;5047475;28;20056;-60
2024/03/08 01:52:25;;;;;;;13.95;6.50;;;;;;;;;;5048599;28;20122;-60
2024/03/08 01:54:53;;;;;;;13.07;6.70;;;;;;;;;;5041218;28;20049;-60
2024/03/08 01:57:22;;;;;;;10.80;6.43;;;;;;;;;;5045919;28;20405;-61
2024/03/08 01:59:51;;;;;;;8.95;5.53;;;;;;;;;;5035376;28;20524;-60
2024/03/08 02:02:19;;;;;;;10.93;5.65;;;;;;;;;;5049179;28;20634;-60
2024/03/08 02:04:48;;;;;;;9.80;4.90;;;;;;;;;;5043777;28;20568;-59
2024/03/08 02:07:18;;;;;;;12.10;5.97;;;;;;;;;;5041272;28;20049;-60
2024/03/08 02:09:46;;;;;;;10.93;5.35;;;;;;;;;;5042871;28;20103;-62
2024/03/08 02:12:15;;;;;;;10.48;5.60;;;;;;;;;;5045911;28;20090;-60
2024/03/08 02:14:44;;;;;;;10.07;5.35;;;;;;;;;;5032563;28;20447;-60
2024/03/08 02:17:12;;;;;;;13.10;6.53;;;;;;;;;;5048379;28;20049;-59
2024/03/08 02:19:41;;;;;;;11.60;6.63;;;;;;;;;;5042302;28;20052;-60
2024/03/08 02:22:11;;;;;;;9.77;5.03;;;;;;;;;;5046550;28;20053;-60
2024/03/08 02:24:39;;;;;;;10.43;5.85;;;;;;;;;;5044496;28;20053;-61
2024/03/08 02:27:11;;;;;;;10.77;6.03;;;;;;;;;;5047659;28;20136;-59
2024/03/08 02:29:40;;;;;;;9.77;5.28;;;;;;;;;;5035307;28;20073;-59
2024/03/08 02:32:09;;;;;;;8.45;5.50;;;;;;;;;;5042371;28;20413;-60
2024/03/08 02:34:37;;;;;;;11.20;5.60;;;;;;;;;;5040561;28;20065;-60
2024/03/08 02:37:05;;;;;;;11.48;6.00;;;;;;;;;;5048068;28;20076;-61
2024/03/08 02:39:35;;;;;;;10.48;5.43;;;;;;;;;;5041439;28;20049;-61
2024/03/08 02:42:04;;;;;;;13.07;6.22;;;;;;;;;;5048608;28;20053;-59
2024/03/08 02:44:33;;;;;;;10.23;5.43;;;;;;;;;;5042894;28;20041;-59
2024/03/08 02:47:02;;;;;;;11.00;6.00;;;;;;;;;;5045305;28;20041;-60
2024/03/08 02:49:30;;;;;;;13.40;6.47;;;;;;;;;;5043910;28;20085;-61
2024/03/08 02:51:59;;;;;;;13.52;6.55;;;;;;;;;;5046960;28;20364;-61
2024/03/08 02:54:28;;;;;;;15.43;6.30;;;;;;;;;;5036007;28;20037;-62
2024/03/08 02:56:57;;;;;;;14.82;6.82;;;;;;;;;;5055032;28;20486;-59
2024/03/08 02:59:26;;;;;;;12.23;6.22;;;;;;;;;;5050912;28;20040;-61
2024/03/08 03:01:54;;;;;;;11.70;5.82;;;;;;;;;;5064248;28;20045;-62
2024/03/08 03:04:23;;;;;;;14.13;7.60;;;;;;;;;;5080169;28;20089;-61
2024/03/08 03:06:52;;;;;;;10.70;5.47;;;;;;;;;;5063922;28;20169;-58
2024/03/08 03:09:23;;;;;;;12.85;6.60;;;;;;;;;;5062752;28;20494;-61
2024/03/08 03:11:52;;;;;;;14.25;6.90;;;;;;;;;;5069320;28;20467;-59
2024/03/08 03:14:21;;;;;;;9.77;6.03;;;;;;;;;;5074811;28;20059;-60
2024/03/08 03:16:50;;;;;;;13.63;7.25;;;;;;;;;;5069400;28;20143;-59
2024/03/08 03:19:18;;;;;;;11.43;6.80;;;;;;;;;;5065315;28;20411;-59
2024/03/08 03:21:47;;;;;;;12.15;6.43;;;;;;;;;;5046790;28;20077;-59
2024/03/08 03:24:16;;;;;;;10.73;6.35;;;;;;;;;;5047103;28;20064;-60
2024/03/08 03:26:45;;;;;;;12.02;6.13;;;;;;;;;;5044810;28;20053;-61
2024/03/08 03:29:15;;;;;;;15.13;7.25;;;;;;;;;;5068717;28;20068;-61
2024/03/08 03:31:45;;;;;;;11.70;5.93;;;;;;;;;;5065859;28;20049;-59
2024/03/08 03:34:13;;;;;;;13.32;6.40;;;;;;;;;;5082990;28;20101;-59
2024/03/08 03:36:42;;;;;;;10.82;5.97;;;;;;;;;;5072482;28;20071;-60
2024/03/08 03:39:15;;;;;;;11.90;5.97;;;;;;;;;;5069106;28;20113;-62
2024/03/08 03:41:46;;;;;;;12.02;6.15;;;;;;;;;;5059146;28;20044;-60
2024/03/08 03:44:14;;;;;;;12.32;6.25;;;;;;;;;;5062655;28;20048;-59
2024/03/08 03:46:45;;;;;;;12.90;6.80;;;;;;;;;;5056491;28;20056;-59
2024/03/08 03:49:13;;;;;;;13.52;7.00;;;;;;;;;;5073355;28;20130;-60
2024/03/08 03:51:41;;;;;;;12.55;6.35;;;;;;;;;;5060137;28;20379;-60
2024/03/08 03:54:10;;;;;;;12.45;6.68;;;;;;;;;;5060953;28;20052;-60
2024/03/08 03:56:39;;;;;;;12.15;6.47;;;;;;;;;;5060556;28;20051;-60
2024/03/08 03:59:08;;;;;;;10.93;6.13;;;;;;;;;;5058284;28;20052;-59
2024/03/08 04:01:36;;;;;;;14.35;6.68;;;;;;;;;;5064669;28;20052;-60
2024/03/08 04:04:08;;;;;;;11.25;6.32;;;;;;;;;;5061186;28;20457;-61
2024/03/08 04:06:36;;;;;;;12.82;7.03;;;;;;;;;;5057246;28;20110;-60
2024/03/08 04:09:05;;;;;;;14.30;6.35;;;;;;;;;;5059500;28;20052;-59
2024/03/08 04:11:33;;;;;;;11.90;6.15;;;;;;;;;;5062800;28;20041;-58
2024/03/08 04:14:02;;;;;;;15.07;7.25;;;;;;;;;;5067801;28;20037;-59
2024/03/08 04:16:30;;;;;;;14.38;7.43;;;;;;;;;;5059285;28;20052;-59
2024/03/08 04:18:59;;;;;;;14.75;6.90;;;;;;;;;;5070582;28;20051;-60
2024/03/08 04:21:31;;;;;;;15.95;7.25;;;;;;;;;;5067535;28;20048;-59
2024/03/08 04:23:59;;;;;;;15.10;7.35;;;;;;;;;;5069108;28;20102;-59
2024/03/08 04:26:28;;;;;;;13.30;5.95;;;;;;;;;;5064581;28;20074;-60
2024/03/08 04:28:56;;;;;;;14.73;7.60;;;;;;;;;;5069776;28;20113;-60
2024/03/08 04:31:26;;;;;;;14.13;7.55;;;;;;;;;;5060425;28;20099;-60
2024/03/08 04:33:54;;;;;;;16.05;7.20;;;;;;;;;;5062284;28;20473;-62
2024/03/08 04:36:24;;;;;;;16.60;7.28;;;;;;;;;;5067100;28;20037;-59
2024/03/08 04:38:54;;;;;;;15.23;7.05;;;;;;;;;;5069058;28;20041;-60
2024/03/08 04:41:23;;;;;;;14.45;6.82;;;;;;;;;;5064703;28;20463;-61
2024/03/08 04:43:51;;;;;;;15.63;7.35;;;;;;;;;;5070383;28;20062;-60
2024/03/08 04:46:20;;;;;;;18.45;7.88;;;;;;;;;;5064456;28;20040;-60
2024/03/08 04:48:48;;;;;;;15.40;7.80;;;;;;;;;;5069364;28;20052;-59
2024/03/08 04:51:19;;;;;;;14.52;7.28;;;;;;;;;;5052595;28;20108;-61
2024/03/08 04:53:48;;;;;;;17.10;8.60;;;;;;;;;;5070465;28;20044;-60
2024/03/08 04:56:19;;;;;;;16.27;8.13;;;;;;;;;;5060370;28;20054;-59
2024/03/08 04:58:47;;;;;;;17.45;7.68;;;;;;;;;;5066749;28;20111;-60
2024/03/08 05:01:16;;;;;;;16.08;8.07;;;;;;;;;;5058404;28;20041;-60
2024/03/08 05:03:44;;;;;;;16.73;8.55;;;;;;;;;;5085738;28;20044;-61
2024/03/08 05:06:12;;;;;;;19.40;9.52;;;;;;;;;;5062847;28;20476;-60
2024/03/08 05:08:41;;;;;;;17.27;8.50;;;;;;;;;;5069704;28;20048;-61
2024/03/08 05:11:09;;;;;;;16.15;8.18;;;;;;;;;;5063038;28;20132;-59
2024/03/08 05:13:40;;;;;;;15.27;8.35;;;;;;;;;;5077028;28;20076;-59
2024/03/08 05:16:08;;;;;;;16.08;9.27;;;;;;;;;;5069647;28;20080;-60
2024/03/08 05:18:37;;;;;;;17.75;8.77;;;;;;;;;;5074687;28;20110;-62
2024/03/08 05:21:05;;;;;;;18.00;9.23;;;;;;;;;;5044715;28;20072;-60
2024/03/08 05:23:34;;;;;;;17.83;9.60;;;;;;;;;;5048223;28;20084;-60
2024/03/08 05:26:02;;;;;;;18.35;9.45;;;;;;;;;;5047779;28;20059;-59
2024/03/08 05:28:33;;;;;;;18.95;10.23;;;;;;;;;;5057517;28;20041;-60
2024/03/08 05:31:03;;;;;;;14.80;8.95;;;;;;;;;;5043727;28;20495;-60
2024/03/08 05:33:31;;;;;;;20.45;9.95;;;;;;;;;;5045171;28;20589;-60
2024/03/08 05:36:00;;;;;;;20.02;10.48;;;;;;;;;;5049399;28;20416;-59
2024/03/08 05:38:29;;;;;;;18.38;9.60;;;;;;;;;;5050092;28;20036;-60
2024/03/08 05:40:57;;;;;;;18.27;9.90;;;;;;;;;;5063985;28;20044;-61
2024/03/08 05:43:25;;;;;;;20.13;9.85;;;;;;;;;;5063717;28;20067;-62
2024/03/08 05:45:54;;;;;;;21.30;10.07;;;;;;;;;;5064195;28;20121;-62
2024/03/08 05:48:25;;;;;;;23.77;10.65;;;;;;;;;;5062969;28;20055;-59
2024/03/08 05:50:53;;;;;;;18.52;9.20;;;;;;;;;;5062684;28;20110;-59
2024/03/08 05:53:22;;;;;;;19.45;10.15;;;;;;;;;;5061648;28;20048;-61
2024/03/08 05:55:50;;;;;;;20.33;10.43;;;;;;;;;;5055454;28;20145;-63
2024/03/08 05:58:18;;;;;;;22.45;10.05;;;;;;;;;;5064671;28;20075;-61
2024/03/08 06:00:47;;;;;;;20.65;9.43;;;;;;;;;;5068178;28;20063;-59
2024/03/08 06:03:21;;;;;;;20.67;10.40;;;;;;;;;;5062137;28;20040;-62
2024/03/08 06:05:51;;;;;;;24.52;11.07;;;;;;;;;;5065536;28;20045;-59
2024/03/08 06:08:19;;;;;;;18.17;9.77;;;;;;;;;;5068064;28;20102;-61
2024/03/08 06:10:52;;;;;;;22.27;10.07;;;;;;;;;;5067177;28;20509;-59
2024/03/08 06:13:21;;;;;;;23.58;11.30;;;;;;;;;;5067237;28;20048;-59
2024/03/08 06:15:50;;;;;;;20.45;10.32;;;;;;;;;;5068076;28;20101;-59
2024/03/08 06:18:18;;;;;;;23.67;10.50;;;;;;;;;;5063111;28;20107;-60
2024/03/08 06:20:47;;;;;;;26.52;11.50;;;;;;;;;;5063854;28;20123;-60
2024/03/08 06:23:17;;;;;;;21.55;9.32;;;;;;;;;;5063088;28;20044;-60
2024/03/08 06:25:46;;;;;;;22.20;10.70;;;;;;;;;;5066784;28;20051;-59
2024/03/08 06:28:14;;;;;;;23.90;10.27;;;;;;;;;;5062081;28;20041;-60
2024/03/08 06:30:43;;;;;;;22.02;10.30;;;;;;;;;;5035037;28;20450;-64
2024/03/08 06:33:11;;;;;;;25.40;10.30;;;;;;;;;;5037049;28;20698;-61
2024/03/08 06:35:40;;;;;;;23.55;11.02;;;;;;;;;;5036138;28;20044;-65
2024/03/08 06:38:08;;;;;;;19.95;10.55;;;;;;;;;;5036389;28;20083;-59
2024/03/08 06:40:38;;;;;;;24.95;10.95;;;;;;;;;;5061231;28;20056;-61
2024/03/08 06:43:06;;;;;;;25.33;11.52;;;;;;;;;;5064983;28;20288;-61
2024/03/08 06:45:36;;;;;;;21.63;11.02;;;;;;;;;;5063013;28;20465;-61
2024/03/08 06:48:09;;;;;;;23.95;11.15;;;;;;;;;;5057063;28;20126;-62
2024/03/08 06:50:38;;;;;;;21.77;10.32;;;;;;;;;;5055011;28;20067;-59
2024/03/08 06:53:06;;;;;;;22.67;10.75;;;;;;;;;;5059666;28;20503;-61
2024/03/08 06:55:35;;;;;;;20.20;9.98;;;;;;;;;;5058365;28;20101;-59
2024/03/08 06:58:06;;;;;;;20.13;9.38;;;;;;;;;;5056412;28;20453;-60
2024/03/08 07:00:36;;;;;;;28.27;11.45;;;;;;;;;;5032294;28;20137;-60
2024/03/08 07:03:06;;;;;;;21.25;10.02;;;;;;;;;;5035240;28;20046;-61
2024/03/08 07:05:35;;;;;;;19.50;10.20;;;;;;;;;;5037880;28;20562;-61
2024/03/08 07:08:03;;;;;;;21.08;10.50;;;;;;;;;;5032018;28;20136;-61
2024/03/08 07:10:31;;;;;;;23.80;10.35;;;;;;;;;;5060145;28;20068;-60
2024/03/08 07:13:01;;;;;;;22.67;10.23;;;;;;;;;;5057044;28;20520;-63
2024/03/08 07:15:32;;;;;;;26.10;9.88;;;;;;;;;;5061548;28;20064;-60
2024/03/08 07:18:00;;;;;;;25.00;11.05;;;;;;;;;;5056449;28;20094;-59
2024/03/08 07:20:29;;;;;;;21.52;10.57;;;;;;;;;;5057018;28;20040;-60
2024/03/08 07:22:57;;;;;;;20.27;9.82;;;;;;;;;;5056818;28;20292;-59
2024/03/08 07:25:29;;;;;;;19.25;9.25;;;;;;;;;;5059559;28;20072;-60
2024/03/08 07:27:58;;;;;;;23.08;10.73;;;;;;;;;;5058185;28;20080;-60
2024/03/08 07:33:14;;;;;;;23.70;10.68;;;;;;;;;;5060463;28;20048;-60
2024/03/08 07:35:44;;;;;;;17.92;9.52;;;;;;;;;;5064011;28;20037;-60
2024/03/08 07:38:12;;;;;;;22.00;10.63;;;;;;;;;;5058148;28;20560;-60
2024/03/08 07:40:44;;;;;;;21.65;9.98;;;;;;;;;;5058044;28;20460;-62
2024/03/08 07:43:13;;;;;;;17.27;9.05;;;;;;;;;;5058666;28;20048;-63
2024/03/08 07:45:41;;;;;;;25.83;9.25;;;;;;;;;;5058195;28;20045;-61
2024/03/08 07:48:10;;;;;;;19.63;9.80;;;;;;;;;;5064722;28;20221;-62
2024/03/08 07:50:41;;;;;;;18.60;9.63;;;;;;;;;;5062316;28;20075;-59
2024/03/08 07:53:10;;;;;;;19.40;9.55;;;;;;;;;;5062299;28;20056;-60
2024/03/08 07:55:39;;;;;;;21.10;11.10;;;;;;;;;;5064303;28;20048;-60
2024/03/08 07:58:10;;;;;;;22.13;10.02;;;;;;;;;;5063158;28;20052;-62
2024/03/08 08:00:39;;;;;;;18.15;9.55;;;;;;;;;;5067271;28;20432;-60
2024/03/08 08:03:08;;;;;;;25.20;10.15;;;;;;;;;;5055648;28;20049;-59
2024/03/08 08:05:38;;;;;;;18.67;9.25;;;;;;;;;;5069136;28;20166;-60
2024/03/08 08:08:10;;;;;;;20.13;9.65;;;;;;;;;;5069027;28;20497;-61
2024/03/08 08:10:39;;;;;;;20.85;9.30;;;;;;;;;;5060977;28;20056;-62
2024/03/08 08:13:08;;;;;;;20.10;10.18;;;;;;;;;;5069877;28;20094;-60
2024/03/08 08:15:36;;;;;;;23.70;9.07;;;;;;;;;;5070913;28;20406;-60
2024/03/08 08:18:05;;;;;;;18.90;9.50;;;;;;;;;;5068016;28;20040;-60
2024/03/08 08:20:35;;;;;;;17.48;8.80;;;;;;;;;;5074280;28;20372;-60
2024/03/08 08:23:03;;;;;;;21.65;9.10;;;;;;;;;;5065878;28;20053;-59
2024/03/08 08:25:34;;;;;;;22.00;9.48;;;;;;;;;;5077292;28;20327;-60
2024/03/08 08:28:03;;;;;;;24.02;9.43;;;;;;;;;;5080360;28;20048;-59
2024/03/08 08:30:33;;;;;;;17.27;8.82;;;;;;;;;;5074665;28;20075;-62
2024/03/08 08:33:02;;;;;;;22.90;10.43;;;;;;;;;;5074162;28;20486;-61
2024/03/08 08:35:30;;;;;;;20.25;9.82;;;;;;;;;;5072610;28;20045;-60
2024/03/08 08:37:59;;;;;;;21.80;9.68;;;;;;;;;;5068781;28;20041;-59
2024/03/08 08:40:28;;;;;;;20.13;9.23;;;;;;;;;;5055807;28;20052;-60
2024/03/08 08:42:59;;;;;;;19.65;10.07;;;;;;;;;;5055631;28;20131;-59
2024/03/08 08:45:28;;;;;;;17.48;9.10;;;;;;;;;;5049226;28;20049;-61
2024/03/08 08:47:56;;;;;;;21.08;9.27;;;;;;;;;;5053696;28;20127;-60
2024/03/08 08:50:25;;;;;;;21.08;9.77;;;;;;;;;;5058011;28;20111;-59
2024/03/08 08:52:54;;;;;;;17.75;9.38;;;;;;;;;;5069643;28;20052;-59
2024/03/08 08:55:25;;;;;;;20.95;9.50;;;;;;;;;;5073927;28;20064;-61
2024/03/08 08:57:55;;;;;;;22.77;9.82;;;;;;;;;;5076362;28;20384;-60
2024/03/08 09:00:26;;;;;;;18.25;9.05;;;;;;;;;;5069963;28;20068;-61
2024/03/08 09:02:57;;;;;;;21.45;9.80;;;;;;;;;;5071579;28;20067;-62
2024/03/08 09:05:27;;;;;;;21.70;9.98;;;;;;;;;;5070417;28;20052;-61
2024/03/08 09:07:55;;;;;;;22.33;11.07;;;;;;;;;;5069923;28;20043;-60
2024/03/08 09:10:24;;;;;;;19.75;10.00;;;;;;;;;;5063220;28;20055;-61
2024/03/08 09:12:59;;;;;;;19.17;8.90;;;;;;;;;;5068204;28;20044;-61
2024/03/08 09:15:29;;;;;;;25.38;10.95;;;;;;;;;;5067061;28;20045;-60
2024/03/08 09:17:59;;;;;;;23.27;10.25;;;;;;;;;;5063143;28;20055;-64
2024/03/08 09:20:28;;;;;;;20.27;10.65;;;;;;;;;;5060391;28;20040;-63
2024/03/08 09:22:56;;;;;;;19.98;9.77;;;;;;;;;;5069286;28;20135;-63
2024/03/08 09:25:26;;;;;;;19.90;8.07;;;;;;;;;;5060622;28;20041;-60
2024/03/08 09:27:54;;;;;;;20.92;8.85;;;;;;;;;;5067565;28;20040;-60
2024/03/08 09:30:23;;;;;;;23.90;11.82;;;;;;;;;;5067540;28;20045;-59
2024/03/08 09:32:53;;;;;;;19.83;9.75;;;;;;;;;;5079903;28;20048;-61
2024/03/08 09:35:25;;;;;;;21.58;9.85;;;;;;;;;;5057694;28;20055;-60
2024/03/08 09:37:54;;;;;;;21.40;9.85;;;;;;;;;;5067064;28;20489;-60
2024/03/08 09:40:24;;;;;;;22.95;9.77;;;;;;;;;;5062493;28;20528;-63
2024/03/08 09:42:53;;;;;;;19.20;9.13;;;;;;;;;;5072130;28;20044;-60
2024/03/08 09:45:23;;;;;;;16.92;9.32;;;;;;;;;;5071940;28;20047;-59
2024/03/08 09:47:54;;;;;;;19.52;8.90;;;;;;;;;;5073282;28;20053;-59
2024/03/08 09:50:22;;;;;;;22.13;9.93;;;;;;;;;;5073485;28;20497;-59
2024/03/08 09:52:51;;;;;;;22.98;10.48;;;;;;;;;;5075540;28;20056;-59
2024/03/08 09:55:22;;;;;;;21.60;10.15;;;;;;;;;;5072140;28;20052;-59
2024/03/08 10:00:39;;;;;;;18.67;8.93;;;;;;;;;;5070011;28;20136;-61
2024/03/08 10:03:09;;;;;;;18.45;9.05;;;;;;;;;;5069636;28;20417;-59
2024/03/08 10:05:40;;;;;;;19.38;9.65;;;;;;;;;;5081623;28;20101;-59
2024/03/08 10:08:08;;;;;;;22.40;10.43;;;;;;;;;;5067223;28;20040;-58
2024/03/08 10:10:37;;;;;;;20.83;10.48;;;;;;;;;;5066733;28;20114;-63
2024/03/08 10:13:07;;;;;;;22.50;9.65;;;;;;;;;;5072385;28;20044;-60
2024/03/08 10:15:35;;;;;;;15.15;8.20;;;;;;;;;;5080610;28;20048;-59
2024/03/08 10:18:03;;;;;;;19.52;9.30;;;;;;;;;;5064732;28;20464;-59
2024/03/08 10:20:33;;;;;;;21.23;9.88;;;;;;;;;;5069217;28;20048;-60
2024/03/08 10:23:03;;;;;;;18.80;8.90;;;;;;;;;;5066538;28;20117;-59
2024/03/08 10:25:39;;;;;;;20.27;8.82;;;;;;;;;;5061123;28;20045;-59
2024/03/08 10:28:08;;;;;;;18.13;8.85;;;;;;;;;;5076037;28;20552;-61
2024/03/08 10:30:37;;;;;;;18.05;9.18;;;;;;;;;;5072984;28;20056;-60
2024/03/08 10:33:06;;;;;;;15.95;8.27;;;;;;;;;;5063315;28;20409;-62
2024/03/08 10:35:36;;;;;;;16.00;8.90;;;;;;;;;;5063520;28;20102;-61
2024/03/08 10:38:08;;;;;;;15.98;8.90;;;;;;;;;;5070396;28;20074;-60
2024/03/08 10:40:37;;;;;;;17.40;9.02;;;;;;;;;;5066528;28;20059;-59
2024/03/08 10:43:08;;;;;;;15.10;8.38;;;;;;;;;;5076911;28;20480;-60
2024/03/08 10:45:37;;;;;;;13.63;7.88;;;;;;;;;;5075473;28;20844;-60
2024/03/08 10:48:09;;;;;;;16.13;8.27;;;;;;;;;;5069186;28;20052;-61
2024/03/08 10:50:39;;;;;;;15.65;8.52;;;;;;;;;;5065322;28;20056;-59
2024/03/08 10:53:08;;;;;;;15.75;7.95;;;;;;;;;;5071274;28;20051;-59
2024/03/08 10:55:38;;;;;;;15.07;8.32;;;;;;;;;;5065007;28;20055;-61
2024/03/08 10:58:08;;;;;;;13.77;8.05;;;;;;;;;;5069717;28;20129;-59
2024/03/08 11:00:36;;;;;;;15.38;7.70;;;;;;;;;;5068245;28;20139;-59
2024/03/08 11:03:05;;;;;;;13.25;7.07;;;;;;;;;;5072912;28;20048;-59
2024/03/08 11:05:38;;;;;;;13.98;7.82;;;;;;;;;;5071954;28;20055;-59
2024/03/08 11:08:19;;;;;;;12.07;7.15;;;;;;;;;;5072597;28;20040;-60
2024/03/08 11:10:51;;;;;;;12.77;7.35;;;;;;;;;;5078648;28;20114;-61
2024/03/08 11:13:34;;;;;;;14.63;7.47;;;;;;;;;;5068537;28;20603;-59
2024/03/08 11:16:05;;;;;;;12.95;6.57;;;;;;;;;;5068028;28;20117;-59
2024/03/08 11:18:35;;;;;;;14.50;7.80;;;;;;;;;;5066675;28;20050;-60
2024/03/08 11:21:06;;;;;;;13.63;7.35;;;;;;;;;;5065444;28;20071;-60
2024/03/08 11:23:36;;;;;;;12.48;7.18;;;;;;;;;;5071585;28;20489;-60
2024/03/08 11:26:07;;;;;;;14.02;7.00;;;;;;;;;;5068535;28;20048;-60
2024/03/08 11:28:35;;;;;;;11.75;7.05;;;;;;;;;;5072904;28;20517;-60
2024/03/08 11:31:19;;;;;;;12.18;6.95;;;;;;;;;;5051302;28;20409;-60
2024/03/08 11:33:49;;;;;;;14.40;6.95;;;;;;;;;;5044677;28;20076;-60
2024/03/08 11:36:22;;;;;;;12.75;6.93;;;;;;;;;;5048526;28;20048;-59
2024/03/08 11:38:52;;;;;;;13.07;7.50;;;;;;;;;;5056703;28;20040;-58
2024/03/08 11:41:22;;;;;;;11.93;6.70;;;;;;;;;;5049026;28;20098;-62
2024/03/08 11:43:51;;;;;;;11.35;6.28;;;;;;;;;;5071992;28;20098;-59
2024/03/08 11:46:21;;;;;;;12.82;6.97;;;;;;;;;;5057870;28;20401;-59
2024/03/08 11:48:49;;;;;;;11.35;6.18;;;;;;;;;;5045939;28;20048;-60
2024/03/08 11:51:18;;;;;;;13.32;6.50;;;;;;;;;;5066486;28;20052;-59
2024/03/08 11:53:47;;;;;;;12.48;7.03;;;;;;;;;;5066182;28;20409;-63
2024/03/08 11:56:19;;;;;;;12.30;7.20;;;;;;;;;;5065981;28;20036;-61
2024/03/08 11:58:56;;;;;;;11.77;6.30;;;;;;;;;;5059985;28;20486;-59
2024/03/08 12:01:26;;;;;;;12.40;6.40;;;;;;;;;;5060566;28;20203;-58
2024/03/08 12:03:55;;;;;;;11.35;6.38;;;;;;;;;;5066904;28;20052;-59
2024/03/08 12:06:23;;;;;;;9.27;6.22;;;;;;;;;;5073187;28;20048;-58
2024/03/08 12:08:53;;;;;;;15.57;7.30;;;;;;;;;;5061842;28;20064;-62
2024/03/08 12:11:23;;;;;;;11.80;6.40;;;;;;;;;;5070092;28;20336;-58
2024/03/08 12:13:54;;;;;;;12.45;6.63;;;;;;;;;;5070450;28;20122;-58
2024/03/08 12:16:23;;;;;;;10.13;6.13;;;;;;;;;;5057822;28;20450;-58
2024/03/08 12:18:53;;;;;;;11.07;5.75;;;;;;;;;;5066214;28;20036;-58
2024/03/08 12:21:23;;;;;;;10.07;5.75;;;;;;;;;;5048616;28;20048;-61
2024/03/08 12:24:04;;;;;;;10.52;6.22;;;;;;;;;;5051821;28;20041;-58
2024/03/08 12:26:34;;;;;;;12.90;7.10;;;;;;;;;;5038627;28;20050;-58
2024/03/08 12:29:22;;;;;;;12.55;6.47;;;;;;;;;;5060053;28;20511;-59
2024/03/08 12:31:53;;;;;;;13.18;7.10;;;;;;;;;;5060132;28;20523;-60
2024/03/08 12:34:22;;;;;;;13.95;6.90;;;;;;;;;;5070033;28;20383;-58
2024/03/08 12:36:53;;;;;;;12.82;6.72;;;;;;;;;;5070100;28;20049;-59
2024/03/08 12:39:26;;;;;;;15.25;7.35;;;;;;;;;;5061368;28;20056;-60
2024/03/08 12:41:59;;;;;;;12.05;6.28;;;;;;;;;;5068081;28;20052;-59
2024/03/08 12:44:28;;;;;;;11.18;6.18;;;;;;;;;;5065615;28;20139;-63
2024/03/08 12:46:58;;;;;;;12.98;6.57;;;;;;;;;;5059434;28;20051;-59
2024/03/08 12:49:27;;;;;;;10.38;6.28;;;;;;;;;;5069227;28;20051;-59
2024/03/08 12:51:56;;;;;;;12.00;6.60;;;;;;;;;;5066843;28;20044;-59
2024/03/08 12:54:24;;;;;;;11.02;6.63;;;;;;;;;;5061454;28;20053;-61
2024/03/08 12:56:54;;;;;;;10.77;6.28;;;;;;;;;;5070969;28;20067;-58
2024/03/08 12:59:24;;;;;;;11.25;6.53;;;;;;;;;;5070499;28;20048;-58
2024/03/08 13:01:53;;;;;;;10.80;6.35;;;;;;;;;;5070279;28;20052;-58
2024/03/08 13:04:22;;;;;;;11.68;6.85;;;;;;;;;;5062144;28;20041;-59
2024/03/08 13:06:51;;;;;;;11.15;5.90;;;;;;;;;;5064964;28;20049;-61
2024/03/08 13:09:23;;;;;;;11.23;6.25;;;;;;;;;;5066563;28;20048;-57
2024/03/08 13:11:54;;;;;;;10.13;6.32;;;;;;;;;;5068645;28;20404;-59
2024/03/08 13:14:24;;;;;;;11.20;6.55;;;;;;;;;;5067389;28;20465;-60
2024/03/08 13:16:54;;;;;;;12.82;6.50;;;;;;;;;;5064467;28;20052;-59
2024/03/08 13:19:23;;;;;;;12.18;7.22;;;;;;;;;;5063801;28;20053;-59
2024/03/08 13:21:53;;;;;;;13.25;7.28;;;;;;;;;;5041279;28;20037;-61
2024/03/08 13:24:21;;;;;;;11.18;6.45;;;;;;;;;;5051302;28;20498;-59
2024/03/08 13:26:50;;;;;;;12.25;7.10;;;;;;;;;;5046498;28;20055;-60
2024/03/08 13:29:19;;;;;;;13.77;6.90;;;;;;;;;;5049963;28;20533;-59
2024/03/08 13:31:51;;;;;;;12.70;6.90;;;;;;;;;;5062504;28;20135;-58
2024/03/08 13:34:27;;;;;;;11.27;7.38;;;;;;;;;;5063352;28;20060;-59
2024/03/08 13:37:00;;;;;;;10.88;5.90;;;;;;;;;;5066721;28;20056;-59
2024/03/08 13:39:31;;;;;;;11.18;5.95;;;;;;;;;;5058066;28;20045;-61
2024/03/08 13:41:59;;;;;;;10.38;6.35;;;;;;;;;;5064032;28;20048;-62
2024/03/08 13:44:27;;;;;;;11.60;6.50;;;;;;;;;;5060077;28;20086;-59
2024/03/08 13:46:58;;;;;;;9.93;6.55;;;;;;;;;;5068677;28;20135;-58
2024/03/08 13:49:27;;;;;;;11.00;6.47;;;;;;;;;;5060588;28;20060;-58
2024/03/08 13:51:58;;;;;;;10.45;5.88;;;;;;;;;;5055142;28;20049;-59
2024/03/08 13:54:30;;;;;;;6.93;5.05;;;;;;;;;;5071245;28;20429;-61
2024/03/08 13:57:00;;;;;;;11.38;6.45;;;;;;;;;;5078388;28;20163;-60
2024/03/08 13:59:29;;;;;;;11.07;6.57;;;;;;;;;;5051915;28;20123;-59
2024/03/08 14:01:59;;;;;;;9.63;6.18;;;;;;;;;;5054182;28;20052;-59
2024/03/08 14:04:28;;;;;;;12.75;6.50;;;;;;;;;;5042937;28;20099;-61
2024/03/08 14:07:01;;;;;;;11.10;6.45;;;;;;;;;;5046098;28;20135;-59
2024/03/08 14:09:30;;;;;;;11.40;6.60;;;;;;;;;;5048492;28;20052;-59
2024/03/08 14:11:59;;;;;;;10.27;5.88;;;;;;;;;;5079183;28;20489;-59
2024/03/08 14:14:27;;;;;;;10.05;6.22;;;;;;;;;;5068537;28;20049;-65
2024/03/08 14:16:58;;;;;;;9.73;5.63;;;;;;;;;;5067000;28;20059;-61
2024/03/08 14:19:28;;;;;;;10.35;6.05;;;;;;;;;;5071956;28;20053;-60
2024/03/08 14:21:56;;;;;;;12.25;6.38;;;;;;;;;;5077326;28;20048;-59
2024/03/08 14:24:25;;;;;;;11.68;6.47;;;;;;;;;;5060006;28;20072;-60
2024/03/08 14:26:53;;;;;;;11.10;6.35;;;;;;;;;;5074838;28;20477;-60
2024/03/08 14:29:22;;;;;;;11.10;6.20;;;;;;;;;;5065299;28;20040;-61
2024/03/08 14:31:50;;;;;;;9.68;5.95;;;;;;;;;;5073299;28;20055;-59
2024/03/08 14:34:20;;;;;;;11.02;6.38;;;;;;;;;;5066672;28;20045;-59
2024/03/08 14:36:50;;;;;;;11.27;6.72;;;;;;;;;;5062171;28;20109;-59
2024/03/08 14:39:21;;;;;;;10.52;6.50;;;;;;;;;;5062682;28;20053;-61
2024/03/08 14:41:53;;;;;;;10.07;5.75;;;;;;;;;;5061938;28;20598;-60
2024/03/08 14:44:22;;;;;;;9.00;5.57;;;;;;;;;;5058460;28;20037;-59
2024/03/08 14:46:50;;;;;;;11.15;6.40;;;;;;;;;;5056227;28;20075;-60